Data for 11/07/2009

Time Sea-Level Adjusted Pressure Absolute Pressure Temperature Relative Humidity Dew Point   
(mb) (inHg) (mb) (inHg) (C) (F) (%) (C) (F)
00:05 1013 29.91 843 24.89 0.5 32.9 64 -5.5 22.1
00:10 1014 29.94 843 24.89 1.3 34.3 59 -5.9 21.3
00:15 1014 29.94 843 24.89 1.8 35.2 56 -6 21.2
00:20 1014 29.94 843 24.89 1.8 35.2 59 -5.5 22.1
00:25 1014 29.94 843 24.89 1.6 34.9 60 -5.3 22.5
00:30 1014 29.94 843 24.89 1.1 33.9 64 -5.1 22.9
00:35 1014 29.94 843 24.89 0.6 33.1 66 -5.1 22.8
00:40 1014 29.94 843 24.89 0.3 32.6 67 -5.1 22.9
00:45 1014 29.94 843 24.89 0 32.1 68 -5.3 22.5
00:50 1014 29.94 843 24.89 0.1 32.2 66 -5.5 22.1
00:55 1014 29.94 843 24.89 0.5 32.9 63 -5.7 21.7
01:00 1014 29.94 843 24.89 1.2 34.1 59 -5.9 21.4
01:05 1014 29.94 843 24.89 1.6 34.9 58 -5.8 21.6
01:10 1014 29.94 843 24.89 1.7 35 58 -5.8 21.6
01:15 1014 29.94 843 24.89 1.7 35.1 58 -5.7 21.8
01:20 1014 29.94 843 24.89 1.7 35.1 57 -5.8 21.5
01:25 1014 29.94 843 24.89 1.6 34.9 58 -5.7 21.8
01:30 1014 29.94 843 24.89 1.5 34.6 58 -5.9 21.4
01:35 1014 29.94 843 24.89 1.4 34.4 59 -5.9 21.4
01:40 1014 29.94 843 24.89 1.2 34.1 60 -5.7 21.8
01:45 1014 29.94 843 24.89 0.8 33.5 61 -5.8 21.6
01:50 1014 29.94 843 24.89 0.9 33.5 58 -6.4 20.4
01:55 1014 29.94 843 24.89 1.1 33.9 59 -6.1 21
02:00 1014 29.94 843 24.89 1 33.7 60 -5.9 21.3
02:05 1014 29.94 843 24.89 0.6 33.1 60 -6.2 20.9
02:10 1014 29.94 843 24.89 0.6 33.1 59 -6.5 20.3
02:15 1014 29.94 843 24.89 1.2 34.2 53 -7.2 19
02:20 1014 29.94 843 24.89 1.7 35.1 53 -6.9 19.6
02:25 1014 29.94 843 24.89 1.5 34.7 54 -6.9 19.5
02:30 1014 29.94 843 24.89 1.6 34.9 55 -6.5 20.3
02:35 1014 29.94 843 24.89 1.5 34.8 54 -6.8 19.8
02:40 1014 29.94 843 24.89 1.8 35.2 53 -6.7 19.9
02:45 1014 29.94 843 24.89 1.7 35.1 52 -7.2 19.1
02:50 1014 29.94 843 24.89 2.2 35.9 47 -7.9 17.8
02:55 1014 29.94 843 24.89 2.7 36.8 49 -7.1 19.2
03:00 1013 29.91 843 24.89 2.3 36.1 52 -6.5 20.2
03:05 1014 29.94 843 24.89 1.6 34.9 55 -6.5 20.3
03:10 1014 29.94 843 24.89 1.3 34.3 61 -5.4 22.3
03:15 1014 29.94 843 24.89 0.4 32.8 63 -5.8 21.6
03:20 1014 29.94 843 24.89 0.4 32.6 64 -5.8 21.6
03:25 1014 29.94 843 24.89 -0 32 64 -6 21.3
03:30 1014 29.94 843 24.89 -0.1 31.9 63 -6.3 20.7
03:35 1014 29.94 843 24.89 0.2 32.4 63 -6 21.2
03:40 1014 29.94 843 24.89 -0 31.9 66 -5.6 21.9
03:45 1014 29.94 843 24.89 -0.8 30.5 69 -5.8 21.6
03:50 1014 29.94 843 24.89 -1 30.2 70 -5.8 21.5
03:55 1014 29.94 843 24.89 -0.8 30.5 68 -6.1 21
04:00 1014 29.94 843 24.89 -0.4 31.3 68 -5.7 21.7
04:05 1014 29.94 843 24.89 -0.1 31.8 66 -5.6 21.8
04:10 1014 29.94 843 24.89 -0.2 31.7 68 -5.5 22.2
04:15 1014 29.94 843 24.89 -0.1 31.8 68 -5.3 22.4
04:20 1014 29.94 843 24.89 0.2 32.3 67 -5.3 22.5
04:25 1014 29.94 843 24.89 0.3 32.6 66 -5.4 22.3
04:30 1014 29.94 843 24.89 0.3 32.6 65 -5.4 22.3
04:35 1014 29.94 843 24.89 0.3 32.5 65 -5.4 22.2
04:40 1014 29.94 843 24.89 0.3 32.6 66 -5.3 22.5
04:45 1014 29.94 843 24.89 0.1 32.3 67 -5.3 22.4
04:50 1014 29.94 843 24.89 0.2 32.3 67 -5.3 22.4
04:55 1014 29.94 843 24.89 0.2 32.3 66 -5.4 22.3
05:00 1014 29.94 843 24.89 0.1 32.2 66 -5.5 22.1
05:05 1014 29.94 843 24.89 -0.1 31.9 68 -5.2 22.6
05:10 1014 29.94 843 24.89 -0.5 31.1 70 -5.4 22.3
05:15 1014 29.94 843 24.89 -0.7 30.8 69 -5.7 21.8
05:20 1014 29.94 843 24.89 -0.7 30.8 68 -5.8 21.6
05:25 1014 29.94 843 24.89 -0.6 30.9 68 -5.8 21.5
05:30 1014 29.94 843 24.89 -0.3 31.4 65 -6 21.2
05:35 1014 29.94 843 24.89 -0.2 31.6 65 -6.1 21
05:40 1014 29.94 843 24.89 -0.3 31.5 66 -6 21.2
05:45 1014 29.94 843 24.89 -0.8 30.6 67 -6.1 21.1
05:50 1014 29.94 843 24.89 -0.7 30.8 64 -6.7 19.9
05:55 1014 29.94 843 24.89 -0.7 30.8 67 -6 21.2
06:00 1014 29.94 843 24.89 -1 30.2 68 -6.2 20.8
06:05 1014 29.94 843 24.89 -1.4 29.5 72 -5.8 21.5
06:10 1014 29.94 843 24.89 -1.8 28.8 72 -6.2 20.9
06:15 1014 29.94 843 24.89 -1.8 28.8 72 -6.2 20.9
06:20 1014 29.94 843 24.89 -1.5 29.3 69 -6.5 20.2
06:25 1014 29.94 843 24.89 -1 30.2 64 -7 19.5
06:30 1014 29.94 843 24.89 -0.7 30.8 61 -7.2 19.1
06:35 1014 29.94 843 24.89 -0.2 31.7 60 -7 19.4
06:40 1014 29.94 843 24.89 -0.2 31.6 59 -7.2 19.1
06:45 1014 29.94 843 24.89 -0.6 31 63 -6.8 19.8
06:50 1014 29.94 843 24.89 -1.2 29.9 64 -7.2 19.1
06:55 1014 29.94 843 24.89 -0.9 30.3 61 -7.4 18.6
07:00 1014 29.94 843 24.89 -0.5 31.1 58 -7.8 17.9
07:05 1014 29.94 843 24.89 0.1 32.1 57 -7.5 18.4
07:10 1014 29.94 843 24.89 0 32 57 -7.5 18.4
07:15 1014 29.94 843 24.89 -0.1 31.9 57 -7.6 18.3
07:20 1014 29.94 843 24.89 0.1 32.2 56 -7.6 18.3
07:25 1014 29.94 843 24.89 0.1 32.2 58 -7.2 19.1
07:30 1014 29.94 843 24.89 -0.1 31.8 59 -7.2 19.1
07:35 1014 29.94 843 24.89 -0.1 31.9 58 -7.4 18.7
07:40 1014 29.94 843 24.89 0.5 32.9 54 -7.7 18.2
07:45 1014 29.94 843 24.89 0.7 33.2 56 -7.2 19.1
07:50 1014 29.94 843 24.89 0.7 33.3 55 -7.3 18.9
07:55 1014 29.94 843 24.89 0.8 33.4 54 -7.6 18.4
08:00 1014 29.94 843 24.89 0.9 33.7 55 -7.1 19.3
08:05 1014 29.94 844 24.92 0.4 32.8 57 -7.1 19.2
08:10 1014 29.94 844 24.92 -0.1 31.8 61 -6.7 20
08:15 1014 29.94 844 24.92 -0.6 30.9 60 -7.4 18.7
08:20 1014 29.94 844 24.92 -0.5 31 61 -7.1 19.3
08:25 1014 29.94 844 24.92 -0.2 31.6 56 -8 17.6
08:30 1014 29.94 844 24.92 0.2 32.3 54 -8 17.5
08:35 1014 29.94 844 24.92 1.1 33.9 53 -7.5 18.4
08:40 1014 29.94 844 24.92 1.4 34.5 54 -6.9 19.6
08:45 1014 29.94 844 24.92 1.2 34.2 54 -7 19.5
08:50 1014 29.94 844 24.92 1.4 34.5 51 -7.6 18.4
08:55 1014 29.94 844 24.92 1.9 35.4 49 -7.8 18
09:00 1014 29.94 844 24.92 2.7 36.9 50 -6.8 19.8
09:05 1014 29.94 844 24.92 2.9 37.3 49 -6.9 19.7
09:10 1014 29.94 844 24.92 3.3 37.9 48 -6.7 20
09:15 1014 29.94 844 24.92 3.6 38.5 47 -6.7 20
09:20 1014 29.94 844 24.92 4.3 39.8 46 -6.3 20.7
09:25 1014 29.94 844 24.92 5.2 41.3 43 -6.4 20.5
09:30 1015 29.97 844 24.92 5.2 41.4 45 -5.6 21.9
09:35 1015 29.97 844 24.92 5.4 41.7 35 -8.9 16
09:40 1014 29.94 844 24.92 6 42.8 33 -9.1 15.7
09:45 1014 29.94 844 24.92 6.4 43.5 32 -9.1 15.6
09:50 1014 29.94 844 24.92 6.5 43.6 34 -8.3 17
09:55 1014 29.94 844 24.92 6.6 43.9 32 -9 15.7
10:00 1014 29.94 844 24.92 6.7 44.1 31 -9.3 15.3
10:05 1014 29.94 844 24.92 6.9 44.3 29 -9.9 14.1
10:10 1014 29.94 844 24.92 7.1 44.7 30 -9.5 14.9
10:15 1014 29.94 844 24.92 6.9 44.4 30 -9.6 14.8
10:20 1014 29.94 844 24.92 6.8 44.3 30 -9.4 15
10:25 1014 29.94 844 24.92 7 44.6 30 -9.5 14.9
10:30 1014 29.94 844 24.92 6.9 44.4 29 -10 14
10:35 1014 29.94 844 24.92 6.7 44.1 28 -10.3 13.4
10:40 1014 29.94 844 24.92 7.1 44.8 29 -9.8 14.4
10:45 1014 29.94 844 24.92 7.1 44.7 30 -9.5 14.9
10:50 1014 29.94 844 24.92 7 44.7 30 -9.6 14.8
10:55 1014 29.94 844 24.92 7.3 45.1 30 -9.4 15.1
11:00 1014 29.94 844 24.92 7.9 46.1 27 -9.8 14.4
11:05 1014 29.94 843 24.89 8 46.4 28 -9.6 14.6
11:10 1014 29.94 843 24.89 7.9 46.2 26 -10.3 13.5
11:15 1014 29.94 843 24.89 7.8 46.1 28 -9.7 14.6
11:20 1014 29.94 843 24.89 8 46.3 28 -9.5 14.9
11:25 1014 29.94 843 24.89 8.2 46.7 27 -9.6 14.7
11:30 1014 29.94 843 24.89 8.3 46.9 28 -9.3 15.3
11:35 1014 29.94 843 24.89 8.4 47.1 26 -10 14
11:40 1014 29.94 843 24.89 8.1 46.5 27 -9.9 14.1
11:45 1014 29.94 843 24.89 8.3 46.9 26 -9.9 14.1
11:50 1014 29.94 843 24.89 8.5 47.3 26 -10.1 13.9
11:55 1014 29.94 843 24.89 8.8 47.9 25 -9.9 14.2
12:00 1014 29.94 843 24.89 8.7 47.7 25 -10.4 13.2
12:05 1014 29.94 843 24.89 8.7 47.7 25 -10 13.9
12:10 1014 29.94 843 24.89 8.8 47.8 25 -10.4 13.3
12:15 1013 29.91 843 24.89 8.9 48.1 24 -10.5 13
12:20 1013 29.91 843 24.89 9.3 48.8 25 -9.8 14.3
12:25 1013 29.91 843 24.89 9.4 48.9 25 -9.7 14.5
12:30 1013 29.91 843 24.89 9.2 48.6 25 -9.6 14.7
12:35 1013 29.91 842 24.86 9.3 48.8 25 -9.9 14.2
12:40 1013 29.91 842 24.86 9.5 49.1 25 -9.6 14.6
12:45 1013 29.91 842 24.86 8.8 47.8 26 -9.9 14.2
12:50 1013 29.91 842 24.86 8.4 47 27 -9.7 14.5
12:55 1013 29.91 842 24.86 8.1 46.6 28 -9.5 14.9
13:00 1013 29.91 842 24.86 8.2 46.7 27 -9.6 14.7
13:05 1013 29.91 842 24.86 8.1 46.5 28 -9.3 15.3
13:10 1013 29.91 842 24.86 8.1 46.6 28 -9.5 15
13:15 1013 29.91 842 24.86 8.3 46.9 27 -9.7 14.6
13:20 1013 29.91 842 24.86 8.3 47 26 -10.1 13.8
13:25 1013 29.91 842 24.86 8.1 46.7 25 -10.6 12.9
13:30 1013 29.91 842 24.86 8.1 46.7 26 -10.2 13.6
13:35 1013 29.91 842 24.86 8.2 46.7 25 -10.9 12.4
13:40 1013 29.91 842 24.86 8.2 46.7 26 -10.4 13.2
13:45 1013 29.91 842 24.86 8.1 46.7 25 -10.6 13
13:50 1013 29.91 842 24.86 8.5 47.2 24 -10.9 12.4
13:55 1013 29.91 842 24.86 9 48.2 24 -10.3 13.4
14:00 1013 29.91 842 24.86 8.8 47.8 25 -10.1 13.8
14:05 1013 29.91 842 24.86 8.6 47.5 25 -10.2 13.6
14:10 1013 29.91 842 24.86 8.7 47.7 24 -10.8 12.6
14:15 1013 29.91 842 24.86 8.6 47.4 25 -10.4 13.2
14:20 1013 29.91 842 24.86 8.5 47.3 25 -10.5 13.1
14:25 1013 29.91 842 24.86 8.5 47.3 25 -10.7 12.8
14:30 1013 29.91 842 24.86 8.4 47.1 24 -10.9 12.4
14:35 1013 29.91 842 24.86 8.6 47.4 24 -10.7 12.8
14:40 1013 29.91 842 24.86 9.2 48.6 23 -11.1 12
14:45 1013 29.91 842 24.86 9.5 49.1 22 -11.1 11.9
14:50 1013 29.91 842 24.86 9.6 49.2 22 -11.2 11.8
14:55 1013 29.91 842 24.86 9.7 49.4 21 -11.4 11.5
15:00 1013 29.91 842 24.86 9.6 49.3 22 -11.1 12
15:05 1013 29.91 842 24.86 9.6 49.2 22 -11.3 11.6
15:10 1013 29.91 842 24.86 9.5 49.1 22 -11.5 11.4
15:15 1013 29.91 842 24.86 9.5 49.1 21 -11.6 11.1
15:20 1013 29.91 842 24.86 9.5 49.1 21 -11.9 10.6
15:25 1013 29.91 842 24.86 9.5 49.2 21 -11.8 10.7
15:30 1013 29.91 842 24.86 9.5 49.1 21 -12 10.4
15:35 1013 29.91 842 24.86 9.5 49 20 -12.1 10.1
15:40 1013 29.91 842 24.86 9.4 48.9 21 -12.1 10.3
15:45 1013 29.91 842 24.86 9.1 48.5 21 -12.3 9.8
15:50 1013 29.91 842 24.86 9.2 48.5 21 -12 10.4
15:55 1013 29.91 842 24.86 9.1 48.5 21 -12.2 10.1
16:00 1013 29.91 842 24.86 9.2 48.5 20 -12.4 9.7
16:05 1013 29.91 842 24.86 9.1 48.3 20 -12.5 9.5
16:10 1013 29.91 842 24.86 8.9 48 21 -12.2 10
16:15 1013 29.91 843 24.89 8.7 47.7 22 -11.9 10.6
16:20 1013 29.91 843 24.89 8.7 47.6 23 -11.6 11.2
16:25 1013 29.91 843 24.89 8.6 47.5 23 -11.6 11.1
16:30 1013 29.91 843 24.89 8.7 47.6 23 -11.5 11.4
16:35 1013 29.91 843 24.89 8.4 47.2 23 -11.5 11.2
16:40 1013 29.91 843 24.89 8.2 46.7 23 -11.7 11
16:45 1013 29.91 843 24.89 8.1 46.7 24 -11.5 11.3
16:50 1013 29.91 843 24.89 8.1 46.5 24 -11.2 11.8
16:55 1013 29.91 843 24.89 7.9 46.1 25 -11.2 11.8
17:00 1013 29.91 843 24.89 7.4 45.2 25 -11.3 11.6
17:05 1013 29.91 843 24.89 7 44.5 26 -11.2 11.8
17:10 1014 29.94 843 24.89 6.8 44.2 26 -11.3 11.7
17:15 1014 29.94 843 24.89 6.6 43.9 27 -11.1 12
17:20 1014 29.94 843 24.89 6.4 43.6 28 -11 12.3
17:25 1014 29.94 843 24.89 6.2 43.2 28 -10.9 12.4
17:30 1014 29.94 843 24.89 5.9 42.7 29 -10.9 12.4
17:35 1014 29.94 843 24.89 5.7 42.2 31 -10.3 13.4
17:40 1014 29.94 843 24.89 5 41 32 -10.5 13.2
17:45 1014 29.94 843 24.89 4.4 40 34 -10 14.1
17:50 1014 29.94 843 24.89 4 39.2 36 -9.8 14.3
17:55 1014 29.94 843 24.89 3.6 38.5 38 -9.6 14.8
18:00 1014 29.94 843 24.89 3.7 38.7 35 -10.5 13.1
18:05 1014 29.94 843 24.89 3.8 38.9 34 -10.8 12.6
18:10 1014 29.94 843 24.89 3.7 38.7 34 -10.9 12.4
18:15 1014 29.94 843 24.89 3.7 38.7 32 -11.6 11.1
18:20 1014 29.94 843 24.89 4.3 39.7 30 -11.7 10.9
18:25 1014 29.94 843 24.89 4.5 40.1 30 -11.7 10.9
18:30 1014 29.94 843 24.89 4.5 40.2 31 -11.3 11.7
18:35 1014 29.94 843 24.89 4.3 39.7 32 -11.1 11.9
18:40 1014 29.94 843 24.89 4 39.2 33 -10.8 12.6
18:45 1014 29.94 843 24.89 3.5 38.2 37 -10 14
18:50 1014 29.94 843 24.89 2.9 37.3 38 -10.1 13.9
18:55 1014 29.94 843 24.89 2.6 36.6 40 -9.8 14.4
19:00 1014 29.94 843 24.89 2.6 36.6 37 -10.7 12.8
19:05 1014 29.94 843 24.89 3 37.3 38 -10 14
19:10 1014 29.94 843 24.89 2.7 36.8 40 -9.6 14.7
19:15 1014 29.94 843 24.89 2.5 36.4 41 -9.6 14.8
19:20 1014 29.94 843 24.89 2.6 36.7 41 -9.3 15.3
19:25 1014 29.94 843 24.89 2.5 36.5 37 -10.8 12.6
19:30 1014 29.94 843 24.89 3 37.4 36 -10.7 12.7
19:35 1014 29.94 843 24.89 3 37.4 37 -10.4 13.2
19:40 1014 29.94 843 24.89 2.9 37.2 36 -10.6 12.9
19:45 1014 29.94 843 24.89 3 37.3 37 -10.3 13.5
19:50 1014 29.94 843 24.89 3.2 37.8 38 -9.9 14.1
19:55 1014 29.94 843 24.89 3.3 37.9 37 -9.9 14.2
20:00 1014 29.94 843 24.89 3.3 38 38 -9.7 14.6
20:05 1014 29.94 843 24.89 3 37.5 41 -9.1 15.6
20:10 1014 29.94 843 24.89 2.7 36.8 42 -9 15.8
20:15 1014 29.94 843 24.89 2.6 36.6 39 -10.1 13.8
20:20 1014 29.94 843 24.89 2.8 37.1 37 -10.4 13.3
20:25 1014 29.94 843 24.89 3.3 38 38 -9.8 14.3
20:30 1014 29.94 843 24.89 3.3 37.9 38 -9.7 14.5
20:35 1014 29.94 843 24.89 3.1 37.5 37 -10.1 13.8
20:40 1014 29.94 843 24.89 3.1 37.6 39 -9.7 14.5
20:45 1014 29.94 843 24.89 3.1 37.5 38 -9.8 14.3
20:50 1014 29.94 843 24.89 3 37.4 40 -9.4 15
20:55 1014 29.94 843 24.89 2.7 36.9 43 -8.8 16.2
21:00 1014 29.94 843 24.89 2.3 36.2 43 -9 15.8
21:05 1014 29.94 843 24.89 2.5 36.5 41 -9.5 14.9
21:10 1014 29.94 843 24.89 2.7 36.8 41 -9.3 15.3
21:15 1014 29.94 843 24.89 2.6 36.7 43 -8.9 16
21:20 1014 29.94 843 24.89 2.7 36.8 43 -8.8 16.1
21:25 1014 29.94 843 24.89 2.8 37.1 42 -8.9 16
21:30 1014 29.94 843 24.89 2.9 37.2 40 -9.3 15.2
21:35 1014 29.94 843 24.89 3.1 37.6 41 -8.8 16.2
21:40 1014 29.94 843 24.89 3 37.5 41 -8.9 16
21:45 1014 29.94 843 24.89 3 37.3 40 -9.3 15.3
21:50 1014 29.94 843 24.89 2.8 37.1 40 -9.4 15.1
21:55 1014 29.94 843 24.89 2.7 36.8 40 -9.6 14.7
22:00 1014 29.94 843 24.89 2.7 36.8 42 -9 15.9
22:05 1014 29.94 843 24.89 2 35.6 46 -8.4 16.9
22:10 1014 29.94 843 24.89 1.7 35 42 -9.8 14.4
22:15 1014 29.94 843 24.89 2.2 36 42 -9.4 15.1
22:20 1014 29.94 843 24.89 2.6 36.6 39 -9.9 14.2
22:25 1014 29.94 843 24.89 3 37.5 41 -9.1 15.6
22:30 1014 29.94 843 24.89 2.8 37 41 -9.1 15.5
22:35 1014 29.94 843 24.89 2.5 36.5 42 -9 15.7
22:40 1014 29.94 843 24.89 2.4 36.2 42 -9.2 15.4
22:45 1014 29.94 843 24.89 2.4 36.3 43 -9 15.7
22:50 1014 29.94 843 24.89 2.1 35.8 43 -9.3 15.2
22:55 1014 29.94 843 24.89 2.2 35.9 42 -9.4 15.1
23:00 1014 29.94 843 24.89 2.3 36.1 43 -9 15.8
23:05 1014 29.94 843 24.89 2.2 36 41 -9.7 14.5
23:10 1014 29.94 843 24.89 2.4 36.3 41 -9.5 14.9
23:15 1014 29.94 843 24.89 2.3 36.2 40 -9.9 14.1
23:20 1014 29.94 843 24.89 2.2 35.9 43 -9.1 15.6
23:25 1014 29.94 843 24.89 2 35.5 43 -9.2 15.4
23:30 1014 29.94 843 24.89 1.9 35.5 45 -8.8 16.2
23:35 1014 29.94 843 24.89 1.9 35.4 44 -9.1 15.7
23:40 1014 29.94 843 24.89 2.3 36.1 43 -9.2 15.5
23:45 1014 29.94 843 24.89 2.4 36.3 43 -9.1 15.7
23:50 1014 29.94 843 24.89 2.2 36 42 -9.3 15.3
23:55 1014 29.94 843 24.89 2.4 36.3 43 -9 15.8
24:00 1014 29.94 843 24.89 2.2 36 45 -8.6 16.5